Dades meteomassalio
Diari Summary for Diciembre 14, 2017 Units:  Metric    English   Both
« Previous Day
Next Day »
Diari Semanal Mensual Anual Personalitzat
  Maxima: Minima: Mijana:
Temperatura: -17.8 °C -17.8 °C -13.4 °C
Rosada: -17.8 °C -19.8 °C -16.2 °C
Humitat: Humidity % 60 % 70 %
Velocitat del vent: 0 km/h 0 km/h 6.3 km/h
Racha vent: 0 km/h - -
Vent:- - WNW
Pressio: 0 hPa 34293.4 hPa -
Pluja: 0 mm    
Historical Graphs
 
 
Tabular Data for Diciembre 14, 2017
Time Temperature Dew Point Pressure Wind Wind Speed Wind Gust Humidity Rainfall Rate (Hourly) solar Conditions
-17.8 °C -17.8 °C 0 hPa Calm     Humidity % 0 mm SolarRadiationWatts/m^2 W/m2 Conditions
00:02 -15.3 °C -17.9 °C 34703.1 hPa Calm     72 % 0 mm 0.0 W/m2 CLR
00:07 -15.3 °C -17.9 °C 34703.1 hPa Calm     72 % 0 mm 0.0 W/m2 CLR
00:12 -15.3 °C -17.9 °C 34703.1 hPa Calm     71 % 0 mm 0.0 W/m2 CLR
00:17 -15.3 °C -17.9 °C 34703.1 hPa Calm     71 % 0 mm 0.0 W/m2 CLR
00:22 -15.3 °C -18.1 °C 34693 hPa Calm     70 % 0 mm 0.0 W/m2 CLR
00:27 -15.3 °C -18.2 °C 34693 hPa NW 17.9 km/h 17.9 km/h 69 % 0 mm 0.0 W/m2 CLR
00:32 -15.3 °C -18.4 °C 34693 hPa Calm     67 % 0 mm 0.0 W/m2 CLR
00:37 -15.3 °C -18.7 °C 34693 hPa Calm     65 % 0 mm 0.0 W/m2 CLR
00:42 -15.3 °C -18.5 °C 34693 hPa Calm     66 % 0 mm 0.0 W/m2 CLR
00:52 -15.3 °C -18.7 °C 34682.8 hPa Calm     65 % 0 mm 0.0 W/m2 CLR
00:57 -15.3 °C -18.7 °C 34682.8 hPa Calm     65 % 0 mm 0.0 W/m2 CLR
01:02 -15.3 °C -18.7 °C 34682.8 hPa Calm     65 % 0 mm 0.0 W/m2 CLR
01:07 -15.3 °C -18.7 °C 34682.8 hPa Calm     65 % 0 mm 0.0 W/m2 CLR
01:12 -15.6 °C -18.8 °C 34682.8 hPa Calm     66 % 0 mm 0.0 W/m2 CLR
01:17 -15.6 °C -18.8 °C 34669.3 hPa Calm     66 % 0 mm 0.0 W/m2 CLR
01:22 -15.3 °C -18.7 °C 34669.3 hPa NW 9 km/h   65 % 0 mm 0.0 W/m2 CLR
01:32 -15.3 °C -18.5 °C 34669.3 hPa NW 23.8 km/h 23.8 km/h 66 % 0 mm 0.0 W/m2 CLR
01:37 -15.3 °C -18.7 °C 34659.1 hPa NW 15 km/h 15 km/h 65 % 0 mm 0.0 W/m2 CLR
01:47 -15.3 °C -18.7 °C 34659.1 hPa NNW 12.9 km/h 12.9 km/h 65 % 0 mm 0.0 W/m2 CLR
01:52 -15.6 °C -18.8 °C 34659.1 hPa NNW 20.9 km/h 20.9 km/h 66 % 0 mm 0.0 W/m2 CLR
01:57 -15.6 °C -18.8 °C 34659.1 hPa NNW 18.2 km/h 18.2 km/h 66 % 0 mm 0.0 W/m2 CLR
02:02 -15.9 °C -19 °C 34659.1 hPa NNW 18.2 km/h 18.2 km/h 67 % 0 mm 0.0 W/m2 CLR
02:07 -15.9 °C -19 °C 34659.1 hPa NNW 20.9 km/h 20.9 km/h 67 % 0 mm 0.0 W/m2 CLR
02:12 -16.2 °C -19.2 °C 34659.1 hPa NW 17.9 km/h 17.9 km/h 68 % 0 mm 0.0 W/m2 CLR
02:17 -16.2 °C -19.2 °C 34659.1 hPa NNW 23.8 km/h 23.8 km/h 68 % 0 mm 0.0 W/m2 CLR
02:27 -16.2 °C -19.2 °C 34659.1 hPa NNW 15 km/h 15 km/h 68 % 0 mm 0.0 W/m2 CLR
02:32 -16.6 °C -19.5 °C 34645.6 hPa NW 12.9 km/h 12.9 km/h 68 % 0 mm 0.0 W/m2 CLR
02:37 -16.6 °C -19.5 °C 34645.6 hPa NW 17.9 km/h 17.9 km/h 68 % 0 mm 0.0 W/m2 CLR
02:42 -16.6 °C -19.4 °C 34645.6 hPa NW 20.9 km/h 20.9 km/h 69 % 0 mm 0.0 W/m2 CLR
02:47 -16.6 °C -19.5 °C 34659.1 hPa NNW 11.9 km/h 11.9 km/h 68 % 0 mm 0.0 W/m2 CLR
02:52 -16.6 °C -19.4 °C 34645.6 hPa Calm     69 % 0 mm 0.0 W/m2 CLR
02:57 -16.8 °C -19.6 °C 34645.6 hPa WNW 17.9 km/h 17.9 km/h 70 % 0 mm 0.0 W/m2 CLR
03:02 -16.8 °C -19.7 °C 34645.6 hPa WNW 20.9 km/h 20.9 km/h 69 % 0 mm 0.0 W/m2 CLR
03:07 -16.8 °C -19.8 °C 34645.6 hPa WNW 15 km/h 15 km/h 68 % 0 mm 0.0 W/m2 CLR
03:12 -16.8 °C -19.8 °C 34635.4 hPa WNW 11.9 km/h 11.9 km/h 68 % 0 mm 0.0 W/m2 CLR
03:22 -16.8 °C -19.7 °C 34635.4 hPa Calm     69 % 0 mm 0.0 W/m2 CLR
03:27 -16.8 °C -19.3 °C 34635.4 hPa Calm     72 % 0 mm 0.0 W/m2 CLR
03:32 -17.2 °C -19.6 °C 34635.4 hPa Calm     73 % 0 mm 0.0 W/m2 CLR
03:37 -17.2 °C -19.4 °C 34635.4 hPa Calm     74 % 0 mm 0.0 W/m2 CLR
03:42 -17.2 °C -19.3 °C 34635.4 hPa Calm     75 % 0 mm 0.0 W/m2 CLR
03:47 -17.2 °C -19.3 °C 34625.2 hPa Calm     75 % 0 mm 0.0 W/m2 CLR
03:52 -17.2 °C -19.3 °C 34625.2 hPa Calm     75 % 0 mm 0.0 W/m2 CLR
04:02 -17.2 °C -19.4 °C 34625.2 hPa Calm     74 % 0 mm 0.0 W/m2 CLR
04:07 -17.2 °C -19.4 °C 34625.2 hPa Calm     74 % 0 mm 0.0 W/m2 CLR
04:13 -17.2 °C -19.3 °C 34625.2 hPa Calm     75 % 0 mm 0.0 W/m2 CLR
04:20 -17.2 °C -19.3 °C 34625.2 hPa Calm     76 % 0 mm 0.0 W/m2 CLR
04:22 -17.2 °C -19.2 °C 34625.2 hPa Calm     77 % 0 mm 0.0 W/m2 CLR
04:23 -17.2 °C -19.3 °C 34625.2 hPa Calm     76 % 0 mm 0.0 W/m2 CLR
04:29 -17.4 °C -19.3 °C 34611.7 hPa Calm     78 % 0 mm 0.0 W/m2 CLR
04:32 -17.4 °C -19.3 °C 34611.7 hPa Calm     78 % 0 mm 0.0 W/m2 CLR
04:37 -17.4 °C -19.3 °C 34611.7 hPa Calm     78 % 0 mm 0.0 W/m2 CLR
04:42 -17.4 °C -19.3 °C 34611.7 hPa Calm     79 % 0 mm 0.0 W/m2 CLR
04:47 -17.4 °C -19.3 °C 34611.7 hPa Calm     78 % 0 mm 0.0 W/m2 CLR
04:52 -17.4 °C -19.3 °C 34611.7 hPa Calm     79 % 0 mm 0.0 W/m2 CLR
04:53 -17.4 °C -19.3 °C 34611.7 hPa Calm     79 % 0 mm 0.0 W/m2 CLR
04:55 -17.4 °C -19.3 °C 34611.7 hPa Calm     79 % 0 mm 0.0 W/m2 CLR
05:00 -17.4 °C -19.3 °C 34611.7 hPa Calm     79 % 0 mm 0.0 W/m2 CLR
05:06 -17.4 °C -19.2 °C 34611.7 hPa Calm     80 % 0 mm 0.0 W/m2 CLR
05:11 -17.4 °C -19.2 °C 34601.5 hPa Calm     80 % 0 mm 0.0 W/m2 CLR
05:16 -17.8 °C -19.5 °C 34611.7 hPa Calm     80 % 0 mm 0.0 W/m2 CLR
05:17 -17.8 °C -19.5 °C 34611.7 hPa Calm     80 % 0 mm 0.0 W/m2 CLR
05:22 -17.8 °C -19.4 °C 34611.7 hPa Calm     81 % 0 mm 0.0 W/m2 CLR
05:23 -17.8 °C -19.4 °C 34611.7 hPa Calm     81 % 0 mm 0.0 W/m2 CLR
05:27 -17.8 °C -19.4 °C 34601.5 hPa Calm     81 % 0 mm 0.0 W/m2 CLR
05:32 -17.8 °C -19.5 °C 34601.5 hPa Calm     80 % 0 mm 0.0 W/m2 CLR
05:34 -17.8 °C -19.5 °C 34601.5 hPa Calm     80 % 0 mm 0.0 W/m2 CLR
05:42 -17.4 °C -19 °C 34601.5 hPa Calm     82 % 0 mm 0.0 W/m2 CLR
05:47 -17.4 °C -19 °C 34591.4 hPa Calm     82 % 0 mm 0.0 W/m2 CLR
06:02 -17.4 °C -18.8 °C 34601.5 hPa Calm     84 % 0 mm 0.0 W/m2 CLR
06:07 -17.4 °C -18.8 °C 34591.4 hPa Calm     84 % 0 mm 0.0 W/m2 CLR
06:10 -17.4 °C -18.9 °C 34591.4 hPa Calm     83 % 0 mm 0.0 W/m2 CLR
06:13 -17.4 °C -18.9 °C 34591.4 hPa Calm     83 % 0 mm 0.0 W/m2 CLR
06:18 -17.2 °C -18.6 °C 34591.4 hPa Calm     83 % 0 mm 0.0 W/m2 CLR
06:23 -17.2 °C -18.5 °C 34591.4 hPa Calm     84 % 0 mm 0.0 W/m2 CLR
06:45 -16.6 °C -17.9 °C 34591.4 hPa WSW 20.8 km/h 20.8 km/h 84 % 0 mm 0.0 W/m2 CLR
06:50 -16.6 °C -18 °C 34591.4 hPa West 20.9 km/h 20.9 km/h 83 % 0 mm 0.0 W/m2 CLR
06:53 -16.6 °C -18.1 °C 34591.4 hPa West 17.9 km/h 17.9 km/h 82 % 0 mm 0.0 W/m2 CLR
07:05 -15.9 °C -17.9 °C 34591.4 hPa Calm     77 % 0 mm 0.0 W/m2 CLR
07:10 -15.9 °C -18.2 °C 34591.4 hPa Calm     75 % 0 mm 0.0 W/m2 CLR
07:15 -15.9 °C -17.9 °C 34591.4 hPa Calm     77 % 0 mm 0.0 W/m2 CLR
07:20 -15.6 °C -17.6 °C 34591.4 hPa Calm     78 % 0 mm 0.0 W/m2 CLR
07:25 -15.6 °C -17.7 °C 34591.4 hPa Calm     77 % 0 mm 0.0 W/m2 CLR
07:34 -15.6 °C -17.6 °C 34591.4 hPa Calm     78 % 0 mm 0.0 W/m2 CLR
07:39 -15.6 °C -17.4 °C 34591.4 hPa Calm     79 % 0 mm 0.0 W/m2 CLR
07:44 -15.6 °C -17.3 °C 34591.4 hPa Calm     80 % 0 mm 0.0 W/m2 CLR
07:59 -15.3 °C -17 °C 34577.8 hPa Calm     81 % 0 mm 0.0 W/m2 CLR
08:05 -15.3 °C -17 °C 34577.8 hPa Calm     81 % 0 mm 0.0 W/m2 CLR
08:10 -15.3 °C -17 °C 34591.4 hPa Calm     81 % 0 mm 0.0 W/m2 OVC
08:13 -15.3 °C -16.9 °C 34591.4 hPa Calm     82 % 0 mm 0.0 W/m2 OVC
08:15 -15.3 °C -16.9 °C 34591.4 hPa Calm     82 % 0 mm 0.0 W/m2 OVC
08:20 -15.3 °C -17 °C 34591.4 hPa Calm     81 % 0 mm 0.0 W/m2 OVC
08:25 -15.3 °C -17 °C 34591.4 hPa Calm     81 % 0 mm 0.0 W/m2 OVC
08:30 -15.3 °C -17.1 °C 34591.4 hPa Calm     80 % 0 mm 0.0 W/m2 OVC
08:35 -15 °C -16.7 °C 34591.4 hPa Calm     81 % 0 mm 0.0 W/m2 OVC
08:40 -15 °C -16.7 °C 34591.4 hPa Calm     81 % 0 mm 5.0 W/m2 OVC
08:45 -15 °C -16.6 °C 34591.4 hPa Calm     82 % 0 mm 7.0 W/m2 BKN
08:47 -15 °C -16.7 °C 34591.4 hPa Calm     81 % 0 mm 9.0 W/m2 BKN
08:52 -15 °C -16.7 °C 34591.4 hPa Calm     81 % 0 mm 9.0 W/m2 BKN
08:53 -15 °C -16.7 °C 34591.4 hPa Calm     81 % 0 mm 9.0 W/m2 BKN
09:12 -14.7 °C -16.3 °C 34591.4 hPa Calm     82 % 0 mm 12.0 W/m2 BKN
09:17 -14.4 °C -15.9 °C 34591.4 hPa Calm     82 % 0 mm 14.0 W/m2 BKN
09:22 -14.4 °C -16.1 °C 34591.4 hPa Calm     81 % 0 mm 14.0 W/m2 BKN
09:24 -14.4 °C -16.1 °C 34591.4 hPa Calm     81 % 0 mm 14.0 W/m2 BKN
09:27 -14.4 °C -16.1 °C 34601.5 hPa Calm     81 % 0 mm 14.0 W/m2 BKN
09:29 -14.4 °C -15.9 °C 34601.5 hPa Calm     82 % 0 mm 14.0 W/m2 BKN
09:34 -14.4 °C -16.2 °C 34601.5 hPa Calm     80 % 0 mm 21.0 W/m2 BKN
09:39 -14.4 °C -16.2 °C 34601.5 hPa Calm     80 % 0 mm 26.0 W/m2 BKN
09:40 -14.4 °C -16.2 °C 34601.5 hPa Calm     80 % 0 mm 26.0 W/m2 BKN
09:44 -14.1 °C -15.8 °C 34601.5 hPa Calm     81 % 0 mm 37.0 W/m2 BKN
09:49 -14.1 °C -15.9 °C 34591.4 hPa Calm     80 % 0 mm 54.0 W/m2 BKN
09:54 -14.1 °C -15.9 °C 34601.5 hPa Calm     80 % 0 mm 37.0 W/m2 BKN
09:59 -13.8 °C -15.4 °C 34591.4 hPa Calm     81 % 0 mm 44.0 W/m2 BKN
10:03 -13.8 °C -15.6 °C 34591.4 hPa Calm     80 % 0 mm 49.0 W/m2 BKN
10:08 -13.8 °C -15.6 °C 34591.4 hPa Calm     80 % 0 mm 93.0 W/m2 SCT
10:13 -13.4 °C -15.2 °C 34591.4 hPa Calm     80 % 0 mm 70.0 W/m2 FEW
10:18 -13.4 °C -15.2 °C 34601.5 hPa Calm     80 % 0 mm 72.0 W/m2 FEW
10:19 -13.4 °C -15.2 °C 34601.5 hPa Calm     80 % 0 mm 65.0 W/m2 FEW
10:23 -13.4 °C -15.2 °C 34601.5 hPa Calm     80 % 0 mm 70.0 W/m2 FEW
10:28 -13.4 °C -15.2 °C 34601.5 hPa Calm     80 % 0 mm 72.0 W/m2 FEW
10:30 -13.4 °C -15.2 °C 34591.4 hPa Calm     80 % 0 mm 84.0 W/m2 FEW
10:35 -13.2 °C -14.9 °C 34601.5 hPa Calm     80 % 0 mm 63.0 W/m2 FEW
10:40 -13.2 °C -15.1 °C 34601.5 hPa Calm     79 % 0 mm 72.0 W/m2 FEW
10:43 -13.2 °C -15.1 °C 34601.5 hPa Calm     79 % 0 mm 76.0 W/m2 FEW
10:45 -13.2 °C -15.1 °C 34601.5 hPa Calm     79 % 0 mm 81.0 W/m2 FEW
10:50 -13.2 °C -14.9 °C 34601.5 hPa Calm     80 % 0 mm 91.0 W/m2 FEW
10:55 -12.8 °C -14.7 °C 34601.5 hPa Calm   2.9 km/h 80 % 0 mm 79.0 W/m2 FEW
11:00 -12.8 °C -14.8 °C 34601.5 hPa North 17.9 km/h   78 % 0 mm 83.0 W/m2 FEW
11:05 -12.8 °C -15.1 °C 34601.5 hPa NNW 17.9 km/h 17.9 km/h 76 % 0 mm 69.0 W/m2 FEW
11:11 -12.6 °C -14.9 °C 34601.5 hPa NNW 20.9 km/h 20.9 km/h 74 % 0 mm 56.0 W/m2 FEW
11:16 -12.6 °C -15.1 °C 34601.5 hPa Calm     73 % 0 mm 65.0 W/m2 SCT
11:21 -12.6 °C -15.2 °C 34601.5 hPa Calm     72 % 0 mm 90.0 W/m2 FEW
11:26 -12.2 °C -14.9 °C 34591.4 hPa Calm     72 % 0 mm 128.0 W/m2 CLR
11:31 -12.2 °C -15 °C 34601.5 hPa Calm     71 % 0 mm 155.0 W/m2 CLR
11:36 -11.9 °C -14.7 °C 34591.4 hPa Calm     71 % 0 mm 113.0 W/m2 CLR
11:41 -11.6 °C -14.6 °C 34591.4 hPa Calm     70 % 0 mm 163.0 W/m2 CLR
11:46 -11.3 °C -14.2 °C 34591.4 hPa Calm   0.3 km/h 70 % 0 mm 121.0 W/m2 CLR
11:47 -11.3 °C -14.2 °C 34591.4 hPa NNE 2.6 km/h 2.6 km/h 70 % 0 mm 125.0 W/m2 CLR
11:49 -11 °C -14.1 °C 34591.4 hPa North 23.8 km/h 23.8 km/h 69 % 0 mm 135.0 W/m2 CLR
11:52 -11 °C -13.9 °C 34591.4 hPa North 23.8 km/h 23.8 km/h 70 % 0 mm 148.0 W/m2 CLR
11:57 -10.7 °C -13.8 °C 34591.4 hPa North 36.2 km/h 36.2 km/h 69 % 0 mm 137.0 W/m2 CLR
12:02 -10.7 °C -13.8 °C 34577.8 hPa North 32.8 km/h 32.8 km/h 69 % 0 mm 142.0 W/m2 CLR
12:03 -10.7 °C -13.8 °C 34577.8 hPa North 29.8 km/h 29.8 km/h 69 % 0 mm 139.0 W/m2 CLR
12:08 -10.7 °C -13.8 °C 34577.8 hPa North 23.8 km/h 23.8 km/h 69 % 0 mm 213.0 W/m2 CLR
12:13 -10.7 °C -13.8 °C 34577.8 hPa NNW 32.8 km/h 32.8 km/h 69 % 0 mm 248.0 W/m2 CLR
12:18 -10.7 °C -13.8 °C 34577.8 hPa North 31.1 km/h 31.1 km/h 69 % 0 mm 199.0 W/m2 CLR
12:19 -10.7 °C -13.8 °C 34577.8 hPa North 31.1 km/h 31.1 km/h 69 % 0 mm 193.0 W/m2 CLR
12:20 -10.7 °C -13.8 °C 34577.8 hPa North 29.8 km/h 29.8 km/h 69 % 0 mm 193.0 W/m2 CLR
12:25 -10.7 °C -13.8 °C 34567.7 hPa NNW 28.5 km/h 28.5 km/h 69 % 0 mm 204.0 W/m2 CLR
12:30 -10.7 °C -13.8 °C 34567.7 hPa NNW 28.5 km/h 28.5 km/h 69 % 0 mm 202.0 W/m2 CLR
12:35 -10.7 °C -13.8 °C 34567.7 hPa NNW 29.8 km/h 29.8 km/h 69 % 0 mm 200.0 W/m2 CLR
12:40 -10.7 °C -13.8 °C 34567.7 hPa NNW 32.8 km/h 32.8 km/h 69 % 0 mm 171.0 W/m2 CLR
12:44 -10.7 °C -13.8 °C 34554.1 hPa NNW 29.8 km/h 29.8 km/h 69 % 0 mm 156.0 W/m2 CLR
12:49 -10.7 °C -13.8 °C 34554.1 hPa NNW 26.9 km/h 26.9 km/h 69 % 0 mm 246.0 W/m2 CLR
12:54 -10.7 °C -13.8 °C 34554.1 hPa NNW 15.6 km/h 16.9 km/h 69 % 0 mm 230.0 W/m2 CLR
12:59 -10.4 °C -13.6 °C 34554.1 hPa NW 23.8 km/h 23.8 km/h 68 % 0 mm 246.0 W/m2 CLR
13:04 -10.4 °C -13.6 °C 34544 hPa North 23.3 km/h 23.3 km/h 68 % 0 mm 237.0 W/m2 CLR
13:07 -10.4 °C -13.6 °C 34544 hPa North 23.3 km/h 23.3 km/h 68 % 0 mm 230.0 W/m2 CLR
13:12 -10.4 °C -13.6 °C 34533.8 hPa NNW 20.9 km/h 20.9 km/h 68 % 0 mm 221.0 W/m2 CLR
13:17 -10.4 °C -13.6 °C 34533.8 hPa North 29.8 km/h 29.8 km/h 68 % 0 mm 223.0 W/m2 CLR
13:20 -10.4 °C -13.6 °C 34520.3 hPa North 29.8 km/h 29.8 km/h 68 % 0 mm 225.0 W/m2 CLR
13:22 -10.4 °C -13.7 °C 34520.3 hPa NNE 17.9 km/h 17.9 km/h 67 % 0 mm 230.0 W/m2 CLR
13:27 -10.1 °C -13.3 °C 34520.3 hPa NNW 23.3 km/h 23.3 km/h 68 % 0 mm 239.0 W/m2 CLR
13:32 -10.1 °C -13.3 °C 34520.3 hPa North 26.9 km/h 26.9 km/h 68 % 0 mm 213.0 W/m2 CLR
13:33 -10.1 °C -13.3 °C 34520.3 hPa North 26.9 km/h 26.9 km/h 68 % 0 mm 213.0 W/m2 CLR
13:37 -10.1 °C -13.4 °C 34520.3 hPa North 18.2 km/h 18.2 km/h 67 % 0 mm 185.0 W/m2 CLR
13:42 -10.1 °C -13.4 °C 34510.1 hPa NNE 20.9 km/h 20.9 km/h 67 % 0 mm 199.0 W/m2 CLR
13:47 -10.4 °C -13.7 °C 34510.1 hPa North 26.9 km/h 26.9 km/h 67 % 0 mm 248.0 W/m2 CLR
13:52 -10.1 °C -13.3 °C 34496.6 hPa NNW 20.9 km/h 20.9 km/h 68 % 0 mm 499.0 W/m2 CLR
13:57 -10.1 °C -13.4 °C 34496.6 hPa North 23.8 km/h 23.8 km/h 67 % 0 mm 295.0 W/m2 CLR
14:00 -9.8 °C -13.1 °C 34496.6 hPa NNW 11.9 km/h 11.9 km/h 67 % 0 mm 385.0 W/m2 CLR
14:02 -10.1 °C -13.4 °C 34496.6 hPa NNE 18.2 km/h 18.2 km/h 67 % 0 mm 202.0 W/m2 CLR
14:07 -10.1 °C -13.4 °C 34496.6 hPa North 23.8 km/h 23.8 km/h 67 % 0 mm 188.0 W/m2 CLR
14:12 -10.1 °C -13.4 °C 34496.6 hPa NW 15.6 km/h 15.6 km/h 67 % 0 mm 353.0 W/m2 CLR
14:14 -10.1 °C -13.4 °C 34496.6 hPa NW 17.9 km/h 17.9 km/h 67 % 0 mm 264.0 W/m2 CLR
14:18 -10.1 °C -13.4 °C 34496.6 hPa North 23.8 km/h 23.8 km/h 67 % 0 mm 237.0 W/m2 CLR
14:23 -9.8 °C -13.2 °C 34496.6 hPa NNW 23.8 km/h 23.8 km/h 66 % 0 mm 364.0 W/m2 CLR
14:27 -9.8 °C -13.2 °C 34486.4 hPa North 26.9 km/h 26.9 km/h 66 % 0 mm 299.0 W/m2 CLR
14:28 -9.8 °C -13.2 °C 34486.4 hPa North 26.9 km/h 26.9 km/h 66 % 0 mm 299.0 W/m2 CLR
14:33 -10.1 °C -13.6 °C 34486.4 hPa NNW 17.9 km/h 17.9 km/h 66 % 0 mm 302.0 W/m2 CLR
14:38 -10.1 °C -13.6 °C 34486.4 hPa NNW 23.3 km/h 23.3 km/h 66 % 0 mm 339.0 W/m2 CLR
14:40 -10.1 °C -13.6 °C 34486.4 hPa NNW 26.9 km/h 26.9 km/h 66 % 0 mm 373.0 W/m2 CLR
14:42 -10.1 °C -13.6 °C 34476.3 hPa NNW 9 km/h   66 % 0 mm 387.0 W/m2 CLR
14:47 -9.8 °C -13.4 °C 34476.3 hPa NNW 20.9 km/h 20.9 km/h 65 % 0 mm 264.0 W/m2 CLR
14:52 -9.8 °C -13.4 °C 34462.7 hPa NW 11.9 km/h 14 km/h 65 % 0 mm 251.0 W/m2 CLR
14:57 -9.8 °C -13.4 °C 34462.7 hPa Calm     65 % 0 mm 135.0 W/m2 CLR
15:02 -9.8 °C -13.4 °C 34462.7 hPa Calm     65 % 0 mm 334.0 W/m2 CLR
15:07 -9.8 °C -13.4 °C 34462.7 hPa Calm     65 % 0 mm 255.0 W/m2 CLR
15:10 -9.8 °C -13.5 °C 34462.7 hPa Calm     64 % 0 mm 279.0 W/m2 CLR
15:15 -9.4 °C -13.2 °C 34452.6 hPa Calm     64 % 0 mm 209.0 W/m2 CLR
15:20 -9.8 °C -13.5 °C 34452.6 hPa Calm     64 % 0 mm 237.0 W/m2 CLR
15:25 -9.8 °C -13.4 °C 34452.6 hPa Calm     65 % 0 mm 195.0 W/m2 CLR
15:30 -9.8 °C -13.5 °C 34452.6 hPa Calm     64 % 0 mm 211.0 W/m2 CLR
15:35 -9.8 °C -13.6 °C 34452.6 hPa Calm     63 % 0 mm 193.0 W/m2 CLR
15:40 -9.8 °C -13.5 °C 34452.6 hPa Calm     64 % 0 mm 200.0 W/m2 CLR
15:45 -9.8 °C -13.6 °C 34452.6 hPa Calm     63 % 0 mm 137.0 W/m2 CLR
15:46 -9.8 °C -13.6 °C 34452.6 hPa Calm     63 % 0 mm 139.0 W/m2 CLR
15:52 -9.8 °C -13.6 °C 34442.4 hPa Calm     63 % 0 mm 169.0 W/m2 CLR
15:57 -10.1 °C -13.9 °C 34442.4 hPa Calm     63 % 0 mm 163.0 W/m2 CLR
16:02 -10.1 °C -13.9 °C 34442.4 hPa Calm     63 % 0 mm 156.0 W/m2 CLR
16:04 -10.1 °C -13.9 °C 34442.4 hPa Calm     63 % 0 mm 151.0 W/m2 CLR
16:07 -10.1 °C -13.9 °C 34442.4 hPa Calm     63 % 0 mm 149.0 W/m2 CLR
16:12 -10.4 °C -14.3 °C 34442.4 hPa Calm     62 % 0 mm 137.0 W/m2 CLR
16:17 -10.4 °C -14.2 °C 34442.4 hPa Calm     63 % 0 mm 120.0 W/m2 CLR
16:19 -10.4 °C -14.2 °C 34442.4 hPa Calm     63 % 0 mm 118.0 W/m2 CLR
16:22 -10.7 °C -14.8 °C 34428.8 hPa NNW 3.1 km/h   61 % 0 mm 114.0 W/m2 CLR
16:27 -10.7 °C -14.8 °C 34428.8 hPa Calm     61 % 0 mm 95.0 W/m2 CLR
16:32 -11 °C -15.2 °C 34428.8 hPa Calm     60 % 0 mm 63.0 W/m2 SCT
16:37 -11 °C -15.1 °C 34428.8 hPa Calm     61 % 0 mm 51.0 W/m2 SCT
16:42 -11.3 °C -15.3 °C 34428.8 hPa Calm     61 % 0 mm 54.0 W/m2 SCT
16:44 -11.3 °C -15.2 °C 34428.8 hPa Calm     62 % 0 mm 54.0 W/m2 SCT
16:49 -11.3 °C -15.2 °C 34418.7 hPa Calm     62 % 0 mm 46.0 W/m2 SCT
16:54 -11.3 °C -15.2 °C 34418.7 hPa Calm     62 % 0 mm 35.0 W/m2 BKN
16:58 -11.3 °C -15.3 °C 34418.7 hPa Calm     61 % 0 mm 30.0 W/m2 BKN
17:03 -11.3 °C -15.3 °C 34418.7 hPa Calm     61 % 0 mm 21.0 W/m2 BKN
17:08 -11.3 °C -15.3 °C 34418.7 hPa WNW 12.9 km/h 12.9 km/h 61 % 0 mm 14.0 W/m2 BKN
17:09 -11.3 °C -15.3 °C 34418.7 hPa NW 11.9 km/h 11.9 km/h 61 % 0 mm 14.0 W/m2 BKN
17:13 -11.3 °C -15.3 °C 34418.7 hPa Calm     61 % 0 mm 12.0 W/m2 BKN
17:15 -11.3 °C -15.3 °C 34418.7 hPa Calm     61 % 0 mm 11.0 W/m2 BKN
17:20 -11.6 °C -15.5 °C 34418.7 hPa Calm     62 % 0 mm 7.0 W/m2 BKN
17:25 -11.6 °C -15.5 °C 34418.7 hPa Calm     62 % 0 mm 0.0 W/m2 OVC
17:30 -11.6 °C -15.4 °C 34418.7 hPa Calm     63 % 0 mm 0.0 W/m2 OVC
17:34 -11.6 °C -15.4 °C 34418.7 hPa Calm     63 % 0 mm 0.0 W/m2 OVC
17:35 -11.6 °C -15.4 °C 34418.7 hPa Calm     63 % 0 mm 0.0 W/m2 OVC
17:40 -11.6 °C -15.4 °C 34418.7 hPa NW 6 km/h 6 km/h 63 % 0 mm 0.0 W/m2 OVC
17:44 -11.6 °C -15.5 °C 34405.1 hPa NW 9 km/h 9 km/h 62 % 0 mm 0.0 W/m2 CLR
17:45 -11.6 °C -15.5 °C 34405.1 hPa NW 7.7 km/h 7.7 km/h 62 % 0 mm 0.0 W/m2 CLR
17:50 -11.9 °C -15.8 °C 34405.1 hPa Calm     62 % 0 mm 0.0 W/m2 CLR
17:55 -11.9 °C -15.8 °C 34405.1 hPa Calm     62 % 0 mm 0.0 W/m2 CLR
17:59 -11.9 °C -15.7 °C 34405.1 hPa Calm     63 % 0 mm 0.0 W/m2 CLR
18:04 -11.9 °C -15.7 °C 34405.1 hPa Calm     63 % 0 mm 0.0 W/m2 CLR
18:05 -11.9 °C -15.7 °C 34405.1 hPa Calm     63 % 0 mm 0.0 W/m2 CLR
18:09 -11.9 °C -15.6 °C 34405.1 hPa Calm     64 % 0 mm 0.0 W/m2 CLR
18:14 -11.9 °C -15.6 °C 34405.1 hPa Calm     64 % 0 mm 0.0 W/m2 CLR
18:19 -11.9 °C -15.6 °C 34405.1 hPa Calm     64 % 0 mm 0.0 W/m2 CLR
18:24 -12.2 °C -15.8 °C 34405.1 hPa Calm     64 % 0 mm 0.0 W/m2 CLR
18:29 -12.2 °C -15.8 °C 34395 hPa NW 17.9 km/h 17.9 km/h 64 % 0 mm 0.0 W/m2 CLR
18:34 -12.2 °C -15.8 °C 34405.1 hPa NNW 9 km/h 9 km/h 64 % 0 mm 0.0 W/m2 CLR
18:37 -12.2 °C -15.9 °C 34405.1 hPa NNW 9 km/h 9 km/h 63 % 0 mm 0.0 W/m2 CLR
18:42 -12.2 °C -15.9 °C 34405.1 hPa NW 9 km/h 9 km/h 63 % 0 mm 0.0 W/m2 CLR
18:47 -12.2 °C -15.9 °C 34405.1 hPa WNW 10.3 km/h 10.3 km/h 63 % 0 mm 0.0 W/m2 CLR
18:49 -12.2 °C -15.9 °C 34405.1 hPa NNW 11.9 km/h 11.9 km/h 63 % 0 mm 0.0 W/m2 CLR
18:52 -12.2 °C -15.9 °C 34405.1 hPa NW 6 km/h 6 km/h 63 % 0 mm 0.0 W/m2 CLR
18:57 -12.2 °C -15.9 °C 34405.1 hPa NNW 6 km/h 6 km/h 63 % 0 mm 0.0 W/m2 CLR
19:00 -12.2 °C -15.9 °C 34405.1 hPa NW 6 km/h 6 km/h 63 % 0 mm 0.0 W/m2 CLR
19:02 -12.2 °C -15.9 °C 34405.1 hPa Calm   2.1 km/h 63 % 0 mm 0.0 W/m2 CLR
19:08 -11.9 °C -15.7 °C 34405.1 hPa Calm     63 % 0 mm 0.0 W/m2 CLR
19:13 -11.9 °C -15.7 °C 34405.1 hPa Calm     63 % 0 mm 0.0 W/m2 CLR
19:14 -11.9 °C -15.7 °C 34405.1 hPa Calm     63 % 0 mm 0.0 W/m2 CLR
19:18 -11.9 °C -15.7 °C 34395 hPa NW 6 km/h   63 % 0 mm 0.0 W/m2 CLR
19:19 -11.9 °C -15.7 °C 34395 hPa Calm     63 % 0 mm 0.0 W/m2 CLR
19:23 -11.9 °C -15.7 °C 34395 hPa Calm     63 % 0 mm 0.0 W/m2 CLR
19:27 -12.2 °C -15.8 °C 34395 hPa Calm     64 % 0 mm 0.0 W/m2 CLR
19:28 -12.2 °C -15.8 °C 34395 hPa Calm     64 % 0 mm 0.0 W/m2 CLR
19:33 -12.2 °C -15.8 °C 34395 hPa Calm     64 % 0 mm 0.0 W/m2 CLR
19:38 -12.2 °C -15.7 °C 34395 hPa Calm     65 % 0 mm 0.0 W/m2 CLR
19:43 -12.2 °C -15.6 °C 34395 hPa Calm     66 % 0 mm 0.0 W/m2 CLR
19:48 -12.2 °C -15.6 °C 34395 hPa Calm     66 % 0 mm 0.0 W/m2 CLR
19:53 -12.2 °C -15.6 °C 34395 hPa Calm     66 % 0 mm 0.0 W/m2 CLR
19:58 -12.2 °C -15.6 °C 34395 hPa Calm     66 % 0 mm 0.0 W/m2 CLR
20:03 -12.2 °C -15.6 °C 34395 hPa Calm     66 % 0 mm 0.0 W/m2 CLR
20:08 -12.2 °C -15.6 °C 34395 hPa Calm     66 % 0 mm 0.0 W/m2 CLR
20:13 -12.2 °C -15.4 °C 34395 hPa Calm     67 % 0 mm 0.0 W/m2 CLR
20:18 -12.2 °C -15.4 °C 34395 hPa Calm     67 % 0 mm 0.0 W/m2 CLR
20:20 -12.2 °C -15.4 °C 34395 hPa Calm     67 % 0 mm 0.0 W/m2 CLR
20:23 -12.2 °C -15.4 °C 34395 hPa Calm     68 % 0 mm 0.0 W/m2 CLR
20:28 -12.6 °C -15.7 °C 34395 hPa Calm     68 % 0 mm 0.0 W/m2 CLR
20:33 -12.6 °C -15.7 °C 34395 hPa Calm     68 % 0 mm 0.0 W/m2 CLR
20:38 -12.6 °C -15.7 °C 34395 hPa Calm     68 % 0 mm 0.0 W/m2 CLR
20:43 -12.6 °C -15.5 °C 34395 hPa Calm     69 % 0 mm 0.0 W/m2 CLR
20:48 -12.8 °C -15.7 °C 34384.8 hPa Calm     70 % 0 mm 0.0 W/m2 CLR
20:53 -12.8 °C -15.8 °C 34384.8 hPa Calm     69 % 0 mm 0.0 W/m2 CLR
20:58 -12.8 °C -15.8 °C 34384.8 hPa Calm     69 % 0 mm 0.0 W/m2 CLR
21:03 -12.8 °C -15.7 °C 34371.3 hPa Calm     70 % 0 mm 0.0 W/m2 CLR
21:08 -12.8 °C -15.7 °C 34371.3 hPa Calm     70 % 0 mm 0.0 W/m2 CLR
21:13 -12.8 °C -15.6 °C 34371.3 hPa NW 9 km/h 9 km/h 71 % 0 mm 0.0 W/m2 CLR
21:18 -13.2 °C -16 °C 34371.3 hPa NNW 9 km/h 9 km/h 70 % 0 mm 0.0 W/m2 CLR
21:20 -13.2 °C -16 °C 34371.3 hPa North 3.1 km/h   70 % 0 mm 0.0 W/m2 CLR
21:25 -13.2 °C -16.1 °C 34371.3 hPa Calm     69 % 0 mm 0.0 W/m2 CLR
21:27 -13.2 °C -16.1 °C 34361.1 hPa NW 9 km/h 9 km/h 69 % 0 mm 0.0 W/m2 CLR
21:32 -13.2 °C -16.2 °C 34361.1 hPa NW 9 km/h 9 km/h 68 % 0 mm 0.0 W/m2 CLR
21:33 -13.2 °C -16.2 °C 34361.1 hPa NW 11.9 km/h 11.9 km/h 68 % 0 mm 0.0 W/m2 CLR
21:38 -13.2 °C -16.3 °C 34361.1 hPa NW 9 km/h 9 km/h 67 % 0 mm 0.0 W/m2 CLR
21:43 -13.2 °C -16.3 °C 34347.6 hPa WNW 9 km/h 9 km/h 67 % 0 mm 0.0 W/m2 CLR
21:48 -13.4 °C -16.6 °C 34347.6 hPa NW 11.9 km/h 11.9 km/h 67 % 0 mm 0.0 W/m2 CLR
21:53 -13.4 °C -16.8 °C 34347.6 hPa Calm     66 % 0 mm 0.0 W/m2 CLR
21:58 -13.4 °C -16.6 °C 34347.6 hPa Calm     67 % 0 mm 0.0 W/m2 CLR
21:59 -13.4 °C -16.6 °C 34347.6 hPa Calm     67 % 0 mm 0.0 W/m2 CLR
22:05 -13.4 °C -16.6 °C 34337.4 hPa Calm     67 % 0 mm 0.0 W/m2 CLR
22:10 -13.4 °C -16.4 °C 34337.4 hPa Calm     69 % 0 mm 0.0 W/m2 CLR
22:15 -13.4 °C -16.3 °C 34337.4 hPa Calm     70 % 0 mm 0.0 W/m2 CLR
22:20 -13.8 °C -16.5 °C 34327.3 hPa NW 18.2 km/h 18.2 km/h 71 % 0 mm 0.0 W/m2 CLR
22:25 -13.8 °C -16.7 °C 34327.3 hPa WNW 11.9 km/h 11.9 km/h 69 % 0 mm 0.0 W/m2 CLR
22:30 -13.8 °C -16.8 °C 34313.7 hPa NW 9 km/h 9 km/h 68 % 0 mm 0.0 W/m2 CLR
22:35 -13.8 °C -16.9 °C 34313.7 hPa Calm     67 % 0 mm 0.0 W/m2 CLR
22:40 -14.1 °C -17.3 °C 34313.7 hPa Calm     67 % 0 mm 0.0 W/m2 CLR
22:43 -14.1 °C -17.1 °C 34313.7 hPa Calm     68 % 0 mm 0.0 W/m2 CLR
22:48 -14.1 °C -17 °C 34313.7 hPa Calm     69 % 0 mm 0.0 W/m2 CLR
22:53 -14.1 °C -17 °C 34313.7 hPa Calm     69 % 0 mm 0.0 W/m2 CLR
22:58 -14.4 °C -17.2 °C 34313.7 hPa Calm     70 % 0 mm 0.0 W/m2 CLR
23:04 -14.4 °C -17.1 °C 34313.7 hPa Calm     71 % 0 mm 0.0 W/m2 CLR
23:09 -14.4 °C -16.9 °C 34313.7 hPa WNW 2.6 km/h 3.1 km/h 73 % 0 mm 0.0 W/m2 CLR
23:14 -14.1 °C -16.7 °C 34313.7 hPa NW 15.6 km/h 15.6 km/h 72 % 0 mm 0.0 W/m2 CLR
23:19 -14.1 °C -17 °C 34303.6 hPa WNW 17.9 km/h 17.9 km/h 69 % 0 mm 0.0 W/m2 CLR
23:24 -14.1 °C -17.3 °C 34303.6 hPa WNW 15.6 km/h 15.6 km/h 67 % 0 mm 0.0 W/m2 CLR
23:29 -14.1 °C -17.3 °C 34303.6 hPa NW 10.3 km/h 10.3 km/h 67 % 0 mm 0.0 W/m2 CLR
23:34 -14.1 °C -17.3 °C 34303.6 hPa NW 9 km/h 9 km/h 66 % 0 mm 0.0 W/m2 CLR
23:39 -14.1 °C -17.3 °C 34303.6 hPa NW 11.9 km/h 11.9 km/h 66 % 0 mm 0.0 W/m2 CLR
23:44 -14.1 °C -17.3 °C 34303.6 hPa NW 11.9 km/h 11.9 km/h 66 % 0 mm 0.0 W/m2 CLR
23:49 -14.1 °C -17.3 °C 34303.6 hPa NW 9 km/h 9 km/h 66 % 0 mm 0.0 W/m2 CLR
23:54 -14.1 °C -17.3 °C 34303.6 hPa West 9 km/h   66 % 0 mm 0.0 W/m2 CLR
23:59 -14.1 °C -17.4 °C 34293.4 hPa Calm     65 % 0 mm 0.0 W/m2 CLR
Lo Temps de Massalio
Compliments of Weather Underground - 1.25 mb